createdAt,value
2018-08-14T00:00:00.932Z,19
2018-08-14T00:03:00.930Z,17
2018-08-14T00:05:00.931Z,19
2018-08-14T00:06:00.965Z,18
2018-08-14T00:08:00.933Z,19
2018-08-14T00:09:00.936Z,18
2018-08-14T00:10:00.937Z,17
2018-08-14T00:12:00.960Z,16
2018-08-14T00:13:00.935Z,15
2018-08-14T00:15:00.934Z,14
2018-08-14T00:20:00.933Z,16
2018-08-14T00:22:00.963Z,17
2018-08-14T00:28:00.953Z,18
2018-08-14T00:29:00.928Z,17
2018-08-14T00:30:00.928Z,16
2018-08-14T00:32:01.981Z,17
2018-08-14T00:33:00.927Z,15
2018-08-14T00:35:00.929Z,16
2018-08-14T00:36:05.927Z,15
2018-08-14T00:37:00.973Z,14
2018-08-14T00:39:00.928Z,16
2018-08-14T00:40:00.930Z,15
2018-08-14T00:41:00.930Z,17
2018-08-14T00:42:00.970Z,18
2018-08-14T00:43:00.927Z,20
2018-08-14T00:44:00.927Z,18
2018-08-14T00:45:00.930Z,17
2018-08-14T00:46:00.929Z,18
2018-08-14T00:48:00.957Z,16
2018-08-14T00:49:00.930Z,19
2018-08-14T00:50:00.928Z,18
2018-08-14T00:51:00.930Z,17
2018-08-14T00:53:00.965Z,18
2018-08-14T00:54:01.954Z,17
2018-08-14T00:55:00.927Z,19
2018-08-14T00:56:00.930Z,20
2018-08-14T00:59:00.955Z,19
2018-08-14T01:00:00.930Z,18
2018-08-14T01:04:00.957Z,17
2018-08-14T01:06:00.930Z,15
2018-08-14T01:07:00.932Z,13
2018-08-14T01:08:00.955Z,15
2018-08-14T01:11:00.930Z,17
2018-08-14T01:12:00.933Z,19
2018-08-14T01:14:00.956Z,20
2018-08-14T01:15:00.928Z,21
2018-08-14T01:17:00.930Z,19
2018-08-14T01:18:00.965Z,18
2018-08-14T01:19:00.934Z,21
2018-08-14T01:20:00.928Z,20
2018-08-14T01:21:01.955Z,21
2018-08-14T01:22:00.933Z,22
2018-08-14T01:24:00.957Z,20
2018-08-14T01:25:00.929Z,19
2018-08-14T01:26:00.930Z,18
2018-08-14T01:27:01.957Z,17
2018-08-14T01:28:00.961Z,18
2018-08-14T01:30:00.932Z,18
2018-08-14T01:32:00.932Z,17
2018-08-14T01:33:00.959Z,15
2018-08-14T01:35:00.933Z,16
2018-08-14T01:37:00.932Z,17
2018-08-14T01:38:00.958Z,18
2018-08-14T01:39:00.932Z,17
2018-08-14T01:40:00.931Z,18
2018-08-14T01:41:00.935Z,17
2018-08-14T01:42:00.946Z,16
2018-08-14T01:43:00.964Z,17
2018-08-14T01:44:00.935Z,19
2018-08-14T01:45:00.933Z,18
2018-08-14T01:46:00.938Z,19
2018-08-14T01:48:05.942Z,17
2018-08-14T01:49:00.932Z,16
2018-08-14T01:52:00.934Z,17
2018-08-14T01:54:01.990Z,16
2018-08-14T01:55:00.941Z,17
2018-08-14T01:56:00.935Z,16
2018-08-14T01:58:01.986Z,17
2018-08-14T02:00:00.938Z,17
2018-08-14T02:01:00.936Z,19
2018-08-14T02:02:00.962Z,18
2018-08-14T02:04:00.935Z,17
2018-08-14T02:05:00.936Z,18
2018-08-14T02:06:00.937Z,17
2018-08-14T02:08:05.949Z,16
2018-08-14T02:09:00.939Z,15
2018-08-14T02:12:00.965Z,16
2018-08-14T02:13:00.938Z,17
2018-08-14T02:15:00.945Z,17
2018-08-14T02:16:00.943Z,18
2018-08-14T02:17:00.966Z,16
2018-08-14T02:18:00.940Z,15
2018-08-14T02:19:00.943Z,16
2018-08-14T02:21:00.943Z,17
2018-08-14T02:24:00.969Z,16
2018-08-14T02:25:00.939Z,17
2018-08-14T02:26:00.942Z,16
2018-08-14T02:27:00.971Z,17
2018-08-14T02:29:00.941Z,16
2018-08-14T02:30:00.942Z,16
2018-08-14T02:31:05.948Z,15
2018-08-14T02:33:00.948Z,17
2018-08-14T02:34:00.942Z,18
2018-08-14T02:35:00.944Z,17
2018-08-14T02:36:00.972Z,20
2018-08-14T02:37:00.942Z,19
2018-08-14T02:38:00.947Z,18
2018-08-14T02:39:00.944Z,19
2018-08-14T02:40:00.943Z,20
2018-08-14T02:41:00.975Z,19
2018-08-14T02:42:00.947Z,18
2018-08-14T02:44:00.944Z,17
2018-08-14T02:45:00.943Z,15
2018-08-14T02:46:01.998Z,14
2018-08-14T02:47:00.945Z,15
2018-08-14T02:48:00.946Z,13
2018-08-14T02:49:05.952Z,14
2018-08-14T02:50:00.947Z,15
2018-08-14T02:51:00.975Z,16
2018-08-14T02:53:05.951Z,18
2018-08-14T02:54:00.949Z,17
2018-08-14T02:55:00.949Z,16
2018-08-14T02:57:00.976Z,17
2018-08-14T02:59:00.949Z,18
2018-08-14T03:00:00.950Z,17
2018-08-14T03:02:00.947Z,15
2018-08-14T03:03:00.953Z,16
2018-08-14T03:04:00.951Z,18
2018-08-14T03:05:00.954Z,19
2018-08-14T03:06:00.953Z,21
2018-08-14T03:07:00.981Z,23
2018-08-14T03:08:00.953Z,21
2018-08-14T03:09:05.956Z,19
2018-08-14T03:11:00.947Z,18
2018-08-14T03:13:00.950Z,20
2018-08-14T03:15:00.953Z,19
2018-08-14T03:17:00.951Z,18
2018-08-14T03:18:00.957Z,17
2018-08-14T03:20:00.956Z,20
2018-08-14T03:22:00.949Z,19
2018-08-14T03:23:00.949Z,20
2018-08-14T03:25:00.955Z,17
2018-08-14T03:26:00.952Z,16
2018-08-14T03:28:00.954Z,15
2018-08-14T03:29:00.952Z,14
2018-08-14T03:30:05.965Z,16
2018-08-14T03:32:00.961Z,17
2018-08-14T03:33:01.978Z,16
2018-08-14T03:34:00.953Z,15
2018-08-14T03:35:00.960Z,16
2018-08-14T03:37:00.959Z,15
2018-08-14T03:38:01.998Z,17
2018-08-14T03:39:00.957Z,19
2018-08-14T03:40:00.954Z,20
2018-08-14T03:41:00.956Z,18
2018-08-14T03:43:00.955Z,17
2018-08-14T03:44:00.956Z,18
2018-08-14T03:45:00.956Z,16
2018-08-14T03:46:00.953Z,15
2018-08-14T03:47:00.956Z,14
2018-08-14T03:49:01.983Z,12
2018-08-14T03:50:00.955Z,14
2018-08-14T03:51:00.955Z,15
2018-08-14T03:52:05.956Z,17
2018-08-14T03:53:00.958Z,18
2018-08-14T03:54:00.955Z,20
2018-08-14T03:55:00.958Z,19
2018-08-14T03:56:00.954Z,21
2018-08-14T03:57:00.955Z,24
2018-08-14T03:58:00.958Z,22
2018-08-14T03:59:00.956Z,21
2018-08-14T04:00:00.957Z,22
2018-08-14T04:01:00.957Z,19
2018-08-14T04:02:00.957Z,15
2018-08-14T04:04:00.963Z,16
2018-08-14T04:05:00.959Z,15
2018-08-14T04:06:00.998Z,16
2018-08-14T04:07:00.959Z,17
2018-08-14T04:08:00.959Z,18
2018-08-14T04:09:00.961Z,19
2018-08-14T04:10:00.957Z,20
2018-08-14T04:11:00.959Z,19
2018-08-14T04:12:00.958Z,20
2018-08-14T04:14:00.958Z,18
2018-08-14T04:15:05.971Z,18
2018-08-14T04:16:00.963Z,17
2018-08-14T04:17:00.960Z,16
2018-08-14T04:18:00.958Z,15
2018-08-14T04:19:00.990Z,16
2018-08-14T04:20:00.960Z,15
2018-08-14T04:21:06.992Z,16
2018-08-14T04:22:00.960Z,17
2018-08-14T04:23:00.986Z,18
2018-08-14T04:26:00.965Z,17
2018-08-14T04:27:00.967Z,16
2018-08-14T04:28:00.991Z,15
2018-08-14T04:30:00.963Z,16
2018-08-14T04:31:00.966Z,17
2018-08-14T04:36:00.968Z,18
2018-08-14T04:37:00.970Z,19
2018-08-14T04:38:00.999Z,21
2018-08-14T04:39:00.967Z,20
2018-08-14T04:40:00.968Z,22
2018-08-14T04:41:00.968Z,19
2018-08-14T04:42:00.996Z,21
2018-08-14T04:44:00.968Z,22
2018-08-14T04:45:00.968Z,20
2018-08-14T04:46:01.020Z,23
2018-08-14T04:47:00.999Z,21
2018-08-14T04:48:00.975Z,20
2018-08-14T04:49:00.979Z,18
2018-08-14T04:50:00.974Z,20
2018-08-14T04:51:00.970Z,18
2018-08-14T04:52:00.998Z,17
2018-08-14T04:53:05.974Z,15
2018-08-14T04:54:01.148Z,18
2018-08-14T04:55:00.974Z,16
2018-08-14T04:56:00.970Z,17
2018-08-14T04:57:01.003Z,16
2018-08-14T04:58:00.975Z,19
2018-08-14T04:59:00.974Z,18
2018-08-14T05:00:00.976Z,18
2018-08-14T05:01:00.976Z,16
2018-08-14T05:02:05.972Z,17
2018-08-14T05:03:00.971Z,18
2018-08-14T05:04:00.972Z,16
2018-08-14T05:06:00.971Z,18
2018-08-14T05:08:00.977Z,17
2018-08-14T05:09:01.019Z,20
2018-08-14T05:10:00.971Z,19
2018-08-14T05:11:00.974Z,18
2018-08-14T05:13:00.972Z,17
2018-08-14T05:14:00.976Z,18
2018-08-14T05:15:01.996Z,17
2018-08-14T05:16:01.004Z,16
2018-08-14T05:17:00.974Z,18
2018-08-14T05:19:00.972Z,19
2018-08-14T05:20:00.974Z,18
2018-08-14T05:21:01.011Z,19
2018-08-14T05:22:00.974Z,17
2018-08-14T05:23:00.974Z,18
2018-08-14T05:25:00.972Z,19
2018-08-14T05:26:01.002Z,20
2018-08-14T05:27:00.975Z,21
2018-08-14T05:29:00.980Z,19
2018-08-14T05:30:00.977Z,21
2018-08-14T05:31:01.021Z,20
2018-08-14T05:32:00.973Z,17
2018-08-14T05:33:01.015Z,16
2018-08-14T05:34:00.978Z,17
2018-08-14T05:35:00.976Z,15
2018-08-14T05:36:01.004Z,16
2018-08-14T05:37:00.975Z,17
2018-08-14T05:38:00.978Z,18
2018-08-14T05:39:00.976Z,17
2018-08-14T05:40:00.978Z,16
2018-08-14T05:41:01.005Z,17
2018-08-14T05:42:00.976Z,16
2018-08-14T05:43:00.978Z,17
2018-08-14T05:45:00.980Z,19
2018-08-14T05:46:02.027Z,18
2018-08-14T05:48:00.974Z,19
2018-08-14T05:49:00.975Z,20
2018-08-14T05:50:05.982Z,18
2018-08-14T05:53:00.997Z,17
2018-08-14T05:55:00.976Z,18
2018-08-14T05:57:00.980Z,19
2018-08-14T05:58:00.975Z,18
2018-08-14T05:59:00.975Z,17
2018-08-14T06:00:05.981Z,17
2018-08-14T06:01:01.012Z,16
2018-08-14T06:02:00.975Z,15
2018-08-14T06:03:00.977Z,14
2018-08-14T06:04:00.975Z,15
2018-08-14T06:05:00.975Z,16
2018-08-14T06:06:01.020Z,15
2018-08-14T06:07:00.976Z,14
2018-08-14T06:08:00.975Z,16
2018-08-14T06:09:00.979Z,14
2018-08-14T06:10:00.977Z,13
2018-08-14T06:11:01.004Z,15
2018-08-14T06:12:02.004Z,16
2018-08-14T06:13:00.977Z,17
2018-08-14T06:14:00.974Z,18
2018-08-14T06:15:00.975Z,18
2018-08-14T06:16:01.003Z,15
2018-08-14T06:17:01.012Z,16
2018-08-14T06:18:00.980Z,14
2018-08-14T06:19:00.978Z,15
2018-08-14T06:20:00.976Z,18
2018-08-14T06:22:00.977Z,17
2018-08-14T06:24:00.977Z,16
2018-08-14T06:25:00.979Z,15
2018-08-14T06:26:00.979Z,16
2018-08-14T06:27:00.978Z,17
2018-08-14T06:28:00.979Z,18
2018-08-14T06:30:05.985Z,18
2018-08-14T06:31:00.982Z,19
2018-08-14T06:32:05.985Z,20
2018-08-14T06:34:05.982Z,22
2018-08-14T06:35:00.983Z,21
2018-08-14T06:36:00.982Z,20
2018-08-14T06:38:00.982Z,18
2018-08-14T06:39:00.982Z,16
2018-08-14T06:40:00.981Z,17
2018-08-14T06:42:00.985Z,16
2018-08-14T06:43:00.980Z,17
2018-08-14T06:44:00.977Z,19
2018-08-14T06:45:00.977Z,20
2018-08-14T06:51:00.979Z,19
2018-08-14T06:52:00.980Z,18
2018-08-14T06:53:00.984Z,17
2018-08-14T06:54:00.995Z,15
2018-08-14T06:55:00.981Z,13
2018-08-14T06:57:00.981Z,12
2018-08-14T06:58:00.981Z,13
2018-08-14T06:59:00.986Z,14
2018-08-14T07:00:05.989Z,13
2018-08-14T07:01:00.980Z,14
2018-08-14T07:02:00.988Z,16
2018-08-14T07:04:00.982Z,15
2018-08-14T07:05:05.990Z,17
2018-08-14T07:06:00.981Z,19
2018-08-14T07:07:00.980Z,18
2018-08-14T07:09:00.980Z,20
2018-08-14T07:10:00.980Z,19
2018-08-14T07:11:01.006Z,16
2018-08-14T07:12:00.985Z,17
2018-08-14T07:13:00.980Z,16
2018-08-14T07:14:00.980Z,17
2018-08-14T07:15:00.983Z,17
2018-08-14T07:16:01.011Z,16
2018-08-14T07:17:00.983Z,14
2018-08-14T07:19:00.981Z,13
2018-08-14T07:20:00.985Z,12
2018-08-14T07:21:01.009Z,14
2018-08-14T07:22:00.983Z,15
2018-08-14T07:25:00.983Z,14
2018-08-14T07:27:01.025Z,15
2018-08-14T07:28:05.991Z,14
2018-08-14T07:29:00.984Z,15
2018-08-14T07:30:00.987Z,15
2018-08-14T07:31:01.012Z,16
2018-08-14T07:34:00.984Z,15
2018-08-14T07:35:00.987Z,17
2018-08-14T07:36:01.031Z,15
2018-08-14T07:37:00.984Z,14
2018-08-14T07:38:00.984Z,16
2018-08-14T07:39:00.984Z,17
2018-08-14T07:40:05.984Z,16
2018-08-14T07:41:01.018Z,17
2018-08-14T07:42:00.983Z,18
2018-08-14T07:43:00.986Z,17
2018-08-14T07:44:00.986Z,18
2018-08-14T07:45:02.013Z,19
2018-08-14T07:46:01.015Z,18
2018-08-14T07:48:00.988Z,17
2018-08-14T07:51:01.015Z,18
2018-08-14T07:52:00.988Z,17
2018-08-14T07:54:00.984Z,16
2018-08-14T07:55:00.985Z,15
2018-08-14T07:56:01.014Z,16
2018-08-14T07:57:00.987Z,17
2018-08-14T07:59:00.985Z,15
2018-08-14T08:00:00.986Z,17
2018-08-14T08:01:01.014Z,16
2018-08-14T08:04:00.988Z,18
2018-08-14T08:05:00.986Z,16
2018-08-14T08:06:01.052Z,14
2018-08-14T08:07:00.986Z,15
2018-08-14T08:08:02.019Z,16
2018-08-14T08:09:00.987Z,15
2018-08-14T08:11:01.015Z,16
2018-08-14T08:12:01.076Z,15
2018-08-14T08:14:06.013Z,16
2018-08-14T08:15:00.990Z,16
2018-08-14T08:16:05.996Z,18
2018-08-14T08:17:00.996Z,19
2018-08-14T08:19:00.990Z,18
2018-08-14T08:20:00.989Z,17
2018-08-14T08:21:01.018Z,18
2018-08-14T08:22:05.995Z,17
2018-08-14T08:23:00.991Z,16
2018-08-14T08:25:00.988Z,17
2018-08-14T08:26:00.989Z,15
2018-08-14T08:27:01.048Z,14
2018-08-14T08:28:00.987Z,16
2018-08-14T08:29:05.998Z,17
2018-08-14T08:30:00.990Z,17
2018-08-14T08:31:05.994Z,16
2018-08-14T08:32:00.988Z,17
2018-08-14T08:33:00.986Z,15
2018-08-14T08:34:00.988Z,16
2018-08-14T08:35:02.018Z,15
2018-08-14T08:36:00.987Z,16
2018-08-14T08:37:00.986Z,15
2018-08-14T08:38:05.997Z,17
2018-08-14T08:39:00.992Z,16
2018-08-14T08:41:00.985Z,17
2018-08-14T08:44:02.016Z,18
2018-08-14T08:45:00.991Z,20
2018-08-14T08:46:00.986Z,18
2018-08-14T08:47:01.023Z,22
2018-08-14T08:48:00.987Z,21
2018-08-14T08:49:06.042Z,20
2018-08-14T08:50:00.991Z,18
2018-08-14T08:51:01.020Z,19
2018-08-14T08:52:01.013Z,17
2018-08-14T08:53:00.987Z,18
2018-08-14T08:57:01.016Z,17
2018-08-14T08:58:01.027Z,16
2018-08-14T08:59:00.991Z,17
2018-08-14T09:00:00.989Z,18
2018-08-14T09:02:01.014Z,19
2018-08-14T09:03:00.987Z,21
2018-08-14T09:04:00.986Z,22
2018-08-14T09:06:00.988Z,21
2018-08-14T09:08:01.014Z,20
2018-08-14T09:10:00.996Z,19
2018-08-14T09:11:00.993Z,17
2018-08-14T09:12:00.989Z,16
2018-08-14T09:13:00.991Z,17
2018-08-14T09:14:00.988Z,16
2018-08-14T09:15:00.988Z,16
2018-08-14T09:16:00.987Z,19
2018-08-14T09:17:00.987Z,21
2018-08-14T09:18:00.989Z,19
2018-08-14T09:19:00.988Z,20
2018-08-14T09:20:00.986Z,19
2018-08-14T09:21:00.989Z,17
2018-08-14T09:22:00.990Z,14
2018-08-14T09:23:00.987Z,15
2018-08-14T09:24:00.989Z,14
2018-08-14T09:25:00.989Z,15
2018-08-14T09:26:00.992Z,14
2018-08-14T09:27:00.996Z,15
2018-08-14T09:29:00.991Z,16
2018-08-14T09:30:01.009Z,16
2018-08-14T09:32:00.990Z,17
2018-08-14T09:34:00.995Z,16
2018-08-14T09:35:00.990Z,18
2018-08-14T09:36:00.994Z,17
2018-08-14T09:37:01.030Z,19
2018-08-14T09:39:00.992Z,20
2018-08-14T09:40:00.991Z,18
2018-08-14T09:41:00.998Z,17
2018-08-14T09:44:00.992Z,15
2018-08-14T09:45:05.995Z,16
2018-08-14T09:46:00.997Z,18
2018-08-14T09:47:01.049Z,16
2018-08-14T09:50:00.998Z,18
2018-08-14T09:52:00.994Z,19
2018-08-14T09:54:01.014Z,21
2018-08-14T09:55:00.997Z,19
2018-08-14T09:57:00.995Z,18
2018-08-14T09:58:00.993Z,17
2018-08-14T10:00:00.996Z,16
2018-08-14T10:01:00.994Z,17
2018-08-14T10:02:00.993Z,18
2018-08-14T10:03:00.993Z,17
2018-08-14T10:04:00.995Z,20
2018-08-14T10:05:00.994Z,21
2018-08-14T10:07:00.995Z,20
2018-08-14T10:08:00.994Z,21
2018-08-14T10:09:00.999Z,18
2018-08-14T10:10:00.995Z,15
2018-08-14T10:11:00.998Z,14
2018-08-14T10:13:00.995Z,15
2018-08-14T10:14:00.995Z,16
2018-08-14T10:15:01.001Z,16
2018-08-14T10:17:00.999Z,17
2018-08-14T10:19:00.996Z,18
2018-08-14T10:20:01.021Z,19
2018-08-14T10:23:00.999Z,16
2018-08-14T10:24:00.996Z,15
2018-08-14T10:26:00.994Z,13
2018-08-14T10:27:00.995Z,14
2018-08-14T10:28:00.998Z,17
2018-08-14T10:29:01.040Z,16
2018-08-14T10:30:00.996Z,17
2018-08-14T10:33:00.997Z,15
2018-08-14T10:35:02.060Z,16
2018-08-14T10:37:00.999Z,20
2018-08-14T10:38:01.005Z,21
2018-08-14T10:40:01.066Z,20
2018-08-14T10:41:01.001Z,21
2018-08-14T10:42:01.003Z,18
2018-08-14T10:43:01.001Z,19
2018-08-14T10:45:01.001Z,19
2018-08-14T10:46:01.023Z,18
2018-08-14T10:47:01.005Z,16
2018-08-14T10:49:01.001Z,15
2018-08-14T10:50:01.000Z,16
2018-08-14T10:51:01.003Z,17
2018-08-14T10:52:01.010Z,20
2018-08-14T10:53:01.005Z,18
2018-08-14T10:54:01.001Z,17
2018-08-14T10:55:01.036Z,16
2018-08-14T10:59:01.006Z,18
2018-08-14T11:00:01.029Z,18
2018-08-14T11:03:01.033Z,19
2018-08-14T11:04:01.010Z,18
2018-08-14T11:08:01.036Z,16
2018-08-14T11:09:01.004Z,15
2018-08-14T11:10:01.013Z,16
2018-08-14T11:13:06.010Z,17
2018-08-14T11:14:01.008Z,18
2018-08-14T11:15:01.006Z,17
2018-08-14T11:17:01.031Z,18
2018-08-14T11:18:01.005Z,19
2018-08-14T11:19:01.010Z,18
2018-08-14T11:20:01.014Z,17
2018-08-14T11:21:01.006Z,15
2018-08-14T11:22:01.052Z,14
2018-08-14T11:23:01.006Z,16
2018-08-14T11:24:01.010Z,17
2018-08-14T11:26:01.009Z,18
2018-08-14T11:27:01.046Z,16
2018-08-14T11:28:01.007Z,15
2018-08-14T11:29:01.010Z,14
2018-08-14T11:30:01.012Z,16
2018-08-14T11:31:01.006Z,18
2018-08-14T11:32:01.043Z,20
2018-08-14T11:33:01.007Z,18
2018-08-14T11:34:01.010Z,20
2018-08-14T11:35:01.009Z,19
2018-08-14T11:36:01.007Z,18
2018-08-14T11:37:01.046Z,17
2018-08-14T11:38:01.010Z,18
2018-08-14T11:39:01.009Z,16
2018-08-14T11:41:01.007Z,14
2018-08-14T11:42:01.047Z,16
2018-08-14T11:43:01.009Z,15
2018-08-14T11:44:01.012Z,16
2018-08-14T11:45:01.009Z,16
2018-08-14T11:47:01.051Z,15
2018-08-14T11:49:01.011Z,16
2018-08-14T11:50:01.011Z,17
2018-08-14T11:51:01.169Z,18
2018-08-14T11:53:02.083Z,17
2018-08-14T11:55:01.013Z,16
2018-08-14T11:56:01.012Z,17
2018-08-14T11:58:01.054Z,18
2018-08-14T11:59:01.014Z,16
2018-08-14T12:00:01.014Z,18
2018-08-14T12:01:01.012Z,17
2018-08-14T12:03:01.059Z,18
2018-08-14T12:09:06.020Z,17
2018-08-14T12:11:01.140Z,16
2018-08-14T12:13:01.102Z,15
2018-08-14T12:15:01.016Z,16
2018-08-14T12:16:01.014Z,18
2018-08-14T12:19:01.058Z,19
2018-08-14T12:20:01.028Z,17
2018-08-14T12:21:01.026Z,15
2018-08-14T12:23:01.017Z,17
2018-08-14T12:24:01.064Z,16
2018-08-14T12:26:01.019Z,17
2018-08-14T12:27:01.018Z,16
2018-08-14T12:29:01.065Z,19
2018-08-14T12:30:01.017Z,18
2018-08-14T12:31:01.022Z,20
2018-08-14T12:34:01.054Z,18
2018-08-14T12:35:01.093Z,19
2018-08-14T12:36:01.020Z,17
2018-08-14T12:37:01.022Z,16
2018-08-14T12:38:01.019Z,17
2018-08-14T12:43:01.019Z,15
2018-08-14T12:44:01.021Z,14
2018-08-14T12:45:01.024Z,15
2018-08-14T12:46:01.021Z,14
2018-08-14T12:48:01.021Z,16
2018-08-14T12:49:01.023Z,15
2018-08-14T12:50:01.020Z,16
2018-08-14T12:51:01.024Z,17
2018-08-14T12:52:01.024Z,18
2018-08-14T12:53:01.022Z,16
2018-08-14T12:55:01.022Z,15
2018-08-14T12:56:01.025Z,12
2018-08-14T12:58:01.024Z,13
2018-08-14T12:59:01.024Z,14
2018-08-14T13:00:01.028Z,15
2018-08-14T13:01:01.023Z,16
2018-08-14T13:02:01.028Z,15
2018-08-14T13:03:01.024Z,16
2018-08-14T13:05:01.025Z,15
2018-08-14T13:07:01.027Z,16
2018-08-14T13:08:01.023Z,15
2018-08-14T13:09:01.075Z,17
2018-08-14T13:10:01.023Z,18
2018-08-14T13:11:01.025Z,19
2018-08-14T13:13:01.032Z,20
2018-08-14T13:14:01.025Z,18
2018-08-14T13:15:01.056Z,15
2018-08-14T13:16:01.024Z,16
2018-08-14T13:19:01.023Z,18
2018-08-14T13:20:01.026Z,17
2018-08-14T13:22:01.025Z,16
2018-08-14T13:25:01.023Z,17
2018-08-14T13:27:01.026Z,16
2018-08-14T13:28:01.025Z,17
2018-08-14T13:29:01.025Z,18
2018-08-14T13:30:01.024Z,19
2018-08-14T13:33:01.023Z,17
2018-08-14T13:34:01.024Z,16
2018-08-14T13:36:01.034Z,17
2018-08-14T13:38:01.028Z,18
2018-08-14T13:39:01.027Z,19
2018-08-14T13:40:01.086Z,18
2018-08-14T13:41:01.028Z,19
2018-08-14T13:42:01.026Z,18
2018-08-14T13:45:01.031Z,19
2018-08-14T13:46:01.027Z,17
2018-08-14T13:48:01.116Z,18
2018-08-14T13:49:01.058Z,17
2018-08-14T13:50:01.028Z,15
2018-08-14T13:51:01.032Z,16
2018-08-14T13:53:01.030Z,15
2018-08-14T13:54:01.059Z,14
2018-08-14T13:55:01.029Z,16
2018-08-14T13:56:01.036Z,15
2018-08-14T13:57:01.031Z,16
2018-08-14T13:58:01.032Z,15
2018-08-14T14:00:01.030Z,15
2018-08-14T14:05:02.066Z,16
2018-08-14T14:06:01.032Z,15
2018-08-14T14:07:01.032Z,14
2018-08-14T14:08:01.032Z,16
2018-08-14T14:09:01.032Z,15
2018-08-14T14:10:01.080Z,14
2018-08-14T14:11:01.034Z,15
2018-08-14T14:13:01.035Z,14
2018-08-14T14:14:01.035Z,15
2018-08-14T14:15:06.037Z,15
2018-08-14T14:19:01.037Z,14
2018-08-14T14:21:01.145Z,13
2018-08-14T14:23:01.042Z,14
2018-08-14T14:26:01.034Z,17
2018-08-14T14:27:01.034Z,18
2018-08-14T14:28:01.040Z,19
2018-08-14T14:29:01.034Z,20
2018-08-14T14:30:02.062Z,19
2018-08-14T14:31:01.036Z,18
2018-08-14T14:32:01.045Z,17
2018-08-14T14:33:01.038Z,16
2018-08-14T14:35:01.039Z,17
2018-08-14T14:37:01.038Z,18
2018-08-14T14:38:02.065Z,17
2018-08-14T14:39:01.042Z,18
2018-08-14T14:41:01.043Z,16
2018-08-14T14:42:01.043Z,15
2018-08-14T14:44:01.043Z,13
2018-08-14T14:45:01.041Z,15
2018-08-14T14:46:01.039Z,16
2018-08-14T14:47:01.039Z,17
2018-08-14T14:50:01.132Z,15
2018-08-14T14:52:01.040Z,14
2018-08-14T14:53:01.044Z,15
2018-08-14T14:54:01.039Z,17
2018-08-14T14:55:01.040Z,18
2018-08-14T14:56:01.067Z,19
2018-08-14T14:58:01.045Z,18
2018-08-14T15:00:01.045Z,16
2018-08-14T15:02:01.045Z,14
2018-08-14T15:03:01.042Z,15
2018-08-14T15:05:01.046Z,17
2018-08-14T15:08:01.046Z,18
2018-08-14T15:09:01.043Z,17
2018-08-14T15:10:06.046Z,16
2018-08-14T15:11:01.045Z,17
2018-08-14T15:12:01.045Z,18
2018-08-14T15:13:01.044Z,17
2018-08-14T15:14:01.060Z,16
2018-08-14T15:15:01.049Z,17
2018-08-14T15:16:01.050Z,18
2018-08-14T15:20:01.095Z,17
2018-08-14T15:21:01.049Z,15
2018-08-14T15:22:01.055Z,14
2018-08-14T15:24:01.045Z,15
2018-08-14T15:26:01.049Z,16
2018-08-14T15:27:01.045Z,15
2018-08-14T15:28:01.048Z,16
2018-08-14T15:30:01.048Z,16
2018-08-14T15:35:01.048Z,14
2018-08-14T15:36:01.047Z,16
2018-08-14T15:39:01.045Z,15
2018-08-14T15:41:01.045Z,16
2018-08-14T15:42:01.047Z,18
2018-08-14T15:44:01.059Z,17
2018-08-14T15:45:01.045Z,17
2018-08-14T15:47:01.049Z,15
2018-08-14T15:48:01.045Z,16
2018-08-14T15:50:01.044Z,17
2018-08-14T15:51:01.045Z,14
2018-08-14T15:52:01.049Z,15
2018-08-14T15:53:01.072Z,13
2018-08-14T15:54:01.078Z,14
2018-08-14T15:55:01.109Z,13
2018-08-14T15:56:01.045Z,15
2018-08-14T15:57:01.046Z,17
2018-08-14T15:58:01.048Z,18
2018-08-14T15:59:01.076Z,17
2018-08-14T16:00:01.046Z,17
2018-08-14T16:01:01.057Z,18
2018-08-14T16:02:01.050Z,17
2018-08-14T16:03:01.051Z,16
2018-08-14T16:04:01.091Z,17
2018-08-14T16:06:01.057Z,16
2018-08-14T16:07:01.047Z,15
2018-08-14T16:08:01.049Z,16
2018-08-14T16:09:01.092Z,15
2018-08-14T16:11:01.048Z,14
2018-08-14T16:12:01.049Z,15
2018-08-14T16:15:01.049Z,13
2018-08-14T16:16:01.048Z,14
2018-08-14T16:17:01.051Z,13
2018-08-14T16:19:01.048Z,14
2018-08-14T16:20:01.054Z,15
2018-08-14T16:21:01.049Z,17
2018-08-14T16:22:01.049Z,18
2018-08-14T16:23:01.051Z,19
2018-08-14T16:24:01.049Z,20
2018-08-14T16:25:01.057Z,19
2018-08-14T16:26:01.050Z,16
2018-08-14T16:27:01.050Z,14
2018-08-14T16:30:01.056Z,14
2018-08-14T16:31:01.053Z,16
2018-08-14T16:32:01.052Z,18
2018-08-14T16:35:01.052Z,19
2018-08-14T16:36:01.052Z,20
2018-08-14T16:37:01.053Z,19
2018-08-14T16:38:01.052Z,18
2018-08-14T16:39:01.052Z,20
2018-08-14T16:40:01.078Z,18
2018-08-14T16:41:01.098Z,14
2018-08-14T16:43:01.051Z,15
2018-08-14T16:44:01.052Z,12
2018-08-14T16:45:01.054Z,12
2018-08-14T16:46:01.052Z,15
2018-08-14T16:47:01.052Z,18
2018-08-14T16:48:01.053Z,19
2018-08-14T16:49:01.052Z,20
2018-08-14T16:50:01.052Z,21
2018-08-14T16:51:01.054Z,20
2018-08-14T16:52:01.055Z,18
2018-08-14T16:55:01.056Z,19
2018-08-14T16:56:01.056Z,18
2018-08-14T16:57:01.060Z,19
2018-08-14T16:58:01.079Z,18
2018-08-14T17:00:01.061Z,18
2018-08-14T17:01:01.057Z,20
2018-08-14T17:02:01.057Z,19
2018-08-14T17:04:01.058Z,20
2018-08-14T17:05:01.059Z,18
2018-08-14T17:06:01.056Z,16
2018-08-14T17:08:01.123Z,17
2018-08-14T17:11:01.058Z,19
2018-08-14T17:12:01.060Z,18
2018-08-14T17:13:01.061Z,17
2018-08-14T17:14:01.069Z,16
2018-08-14T17:15:01.079Z,15
2018-08-14T17:16:06.066Z,14
2018-08-14T17:17:01.061Z,15
2018-08-14T17:18:01.061Z,16
2018-08-14T17:20:01.063Z,17
2018-08-14T17:21:01.062Z,16
2018-08-14T17:22:01.060Z,18
2018-08-14T17:24:01.069Z,19
2018-08-14T17:25:01.096Z,18
2018-08-14T17:27:01.063Z,15
2018-08-14T17:28:01.065Z,16
2018-08-14T17:29:01.065Z,15
2018-08-14T17:30:01.067Z,15
2018-08-14T17:31:01.065Z,16
2018-08-14T17:32:01.067Z,17
2018-08-14T17:35:01.070Z,18
2018-08-14T17:36:01.066Z,17
2018-08-14T17:37:01.069Z,18
2018-08-14T17:39:01.111Z,20
2018-08-14T17:40:01.070Z,18
2018-08-14T17:41:01.068Z,19
2018-08-14T17:42:01.067Z,18
2018-08-14T17:43:01.071Z,16
2018-08-14T17:45:01.067Z,16
2018-08-14T17:48:01.078Z,18
2018-08-14T17:49:01.067Z,16
2018-08-14T17:51:01.076Z,15
2018-08-14T17:52:01.067Z,16
2018-08-14T17:55:01.070Z,17
2018-08-14T17:56:01.071Z,18
2018-08-14T17:58:02.095Z,17
2018-08-14T17:59:01.069Z,19
2018-08-14T18:00:01.071Z,18
2018-08-14T18:02:01.098Z,17
2018-08-14T18:03:01.070Z,16
2018-08-14T18:04:01.072Z,15
2018-08-14T18:05:01.071Z,14
2018-08-14T18:06:01.074Z,15
2018-08-14T18:07:01.108Z,16
2018-08-14T18:13:01.073Z,17
2018-08-14T18:15:01.072Z,17
2018-08-14T18:16:01.072Z,16
2018-08-14T18:17:01.073Z,17
2018-08-14T18:18:01.077Z,16
2018-08-14T18:19:01.072Z,17
2018-08-14T18:21:01.075Z,18
2018-08-14T18:22:01.074Z,17
2018-08-14T18:23:01.075Z,18
2018-08-14T18:27:01.194Z,17
2018-08-14T18:28:01.079Z,15
2018-08-14T18:29:01.077Z,17
2018-08-14T18:30:01.077Z,16
2018-08-14T18:31:01.116Z,15
2018-08-14T18:32:01.119Z,14
2018-08-14T18:33:01.152Z,15
2018-08-14T18:34:01.080Z,13
2018-08-14T18:35:01.090Z,15
2018-08-14T18:36:01.075Z,16
2018-08-14T18:37:01.076Z,19
2018-08-14T18:39:06.081Z,20
2018-08-14T18:40:01.076Z,19
2018-08-14T18:42:01.081Z,17
2018-08-14T18:45:01.076Z,16
2018-08-14T18:46:01.076Z,15
2018-08-14T18:48:01.078Z,16
2018-08-14T18:49:01.108Z,15
2018-08-14T18:51:01.076Z,17
2018-08-14T18:52:01.079Z,18
2018-08-14T18:53:01.105Z,17
2018-08-14T18:54:01.122Z,16
2018-08-14T18:56:01.080Z,15
2018-08-14T18:57:01.078Z,14
2018-08-14T18:58:01.080Z,16
2018-08-14T18:59:01.107Z,19
2018-08-14T19:00:01.080Z,20
2018-08-14T19:03:01.106Z,19
2018-08-14T19:04:01.079Z,18
2018-08-14T19:05:01.118Z,19
2018-08-14T19:06:01.083Z,20
2018-08-14T19:07:01.091Z,19
2018-08-14T19:10:01.080Z,16
2018-08-14T19:11:01.080Z,15
2018-08-14T19:12:01.081Z,14
2018-08-14T19:13:01.081Z,15
2018-08-14T19:14:01.082Z,14
2018-08-14T19:15:01.083Z,16
2018-08-14T19:16:01.081Z,15
2018-08-14T19:17:01.088Z,17
2018-08-14T19:18:01.082Z,15
2018-08-14T19:19:01.082Z,16
2018-08-14T19:20:01.084Z,14
2018-08-14T19:22:01.090Z,15
2018-08-14T19:23:01.082Z,17
2018-08-14T19:25:01.081Z,20
2018-08-14T19:27:01.082Z,18
2018-08-14T19:28:01.082Z,17